Time;durP1;ratioP1;P1;durP2;ratioP2;P2;SDS_P1;SDS_P2;PMS_P1;PMS_P2;Temp;Humidity;BMP_temperature;BMP_pressure;BME280_temperature;BME280_humidity;BME280_pressure;Samples;Min_cycle;Max_cycle;Signal;HPM_P1;HPM_P2
2022/08/29 00:00:36;;;;;;;3.00;2.45;;;;;;;;;;5056836;28;20614;-81
2022/08/29 00:03:06;;;;;;;2.75;2.30;;;;;;;;;;5056059;28;20209;-81
2022/08/29 00:05:36;;;;;;;3.30;2.53;;;;;;;;;;5055029;28;20658;-81
2022/08/29 00:08:05;;;;;;;3.28;2.30;;;;;;;;;;5055856;28;20256;-81
2022/08/29 00:10:34;;;;;;;3.47;2.40;;;;;;;;;;5055285;28;20284;-81
2022/08/29 00:13:03;;;;;;;6.80;4.05;;;;;;;;;;5054669;28;20280;-81
2022/08/29 00:15:31;;;;;;;5.15;2.05;;;;;;;;;;5055810;28;20292;-81
2022/08/29 00:18:00;;;;;;;2.67;2.08;;;;;;;;;;5052987;28;20745;-81
2022/08/29 00:20:31;;;;;;;6.53;3.25;;;;;;;;;;5055456;28;20194;-80
2022/08/29 00:22:59;;;;;;;4.85;2.78;;;;;;;;;;5055777;28;20284;-81
2022/08/29 00:25:27;;;;;;;2.30;1.88;;;;;;;;;;5062710;28;20300;-81
2022/08/29 00:27:55;;;;;;;4.78;2.38;;;;;;;;;;5071876;28;20658;-81
2022/08/29 00:30:24;;;;;;;2.75;2.10;;;;;;;;;;5075104;28;20303;-81
2022/08/29 00:32:51;;;;;;;5.95;2.20;;;;;;;;;;5074924;28;20236;-81
2022/08/29 00:35:25;;;;;;;2.45;2.03;;;;;;;;;;5075285;28;20292;-81
2022/08/29 00:37:53;;;;;;;4.32;2.20;;;;;;;;;;5074818;28;20312;-81
2022/08/29 00:40:26;;;;;;;5.65;2.53;;;;;;;;;;5075098;28;20203;-81
2022/08/29 00:42:54;;;;;;;4.70;2.45;;;;;;;;;;5074686;28;20725;-81
2022/08/29 00:45:22;;;;;;;3.47;2.20;;;;;;;;;;5074619;28;20547;-81
2022/08/29 00:47:54;;;;;;;3.15;2.13;;;;;;;;;;5074002;28;20258;-81
2022/08/29 00:50:30;;;;;;;7.90;3.20;;;;;;;;;;5074305;28;20255;-80
2022/08/29 00:52:59;;;;;;;2.85;2.55;;;;;;;;;;5073987;28;20216;-81
2022/08/29 00:55:30;;;;;;;3.13;2.30;;;;;;;;;;5034647;28;20726;-81
2022/08/29 00:58:02;;;;;;;6.95;2.70;;;;;;;;;;5034454;28;20218;-82
2022/08/29 01:00:31;;;;;;;3.03;2.80;;;;;;;;;;5034701;28;20689;-82
2022/08/29 01:03:01;;;;;;;4.72;2.60;;;;;;;;;;5033804;28;20636;-82
2022/08/29 01:05:30;;;;;;;2.78;2.40;;;;;;;;;;5033775;28;20198;-82
2022/08/29 01:07:58;;;;;;;3.70;2.85;;;;;;;;;;5033603;28;20219;-82
2022/08/29 01:13:12;;;;;;;3.08;2.05;;;;;;;;;;5034341;28;20632;-80
2022/08/29 01:15:41;;;;;;;3.15;2.00;;;;;;;;;;5033648;28;20205;-82
2022/08/29 01:18:09;;;;;;;3.97;2.30;;;;;;;;;;5033543;28;20723;-82
2022/08/29 01:20:47;;;;;;;2.92;2.28;;;;;;;;;;5033921;28;20229;-81
2022/08/29 01:23:17;;;;;;;3.28;2.83;;;;;;;;;;5036074;28;20236;-82
2022/08/29 01:25:49;;;;;;;3.22;2.55;;;;;;;;;;5053928;28;20237;-81
2022/08/29 01:28:20;;;;;;;2.47;2.25;;;;;;;;;;5053813;28;20292;-81
2022/08/29 01:31:04;;;;;;;4.50;2.10;;;;;;;;;;5053564;28;20434;-82
2022/08/29 01:33:41;;;;;;;2.28;2.08;;;;;;;;;;5053680;28;20229;-82
2022/08/29 01:36:11;;;;;;;2.92;2.22;;;;;;;;;;5054030;28;20292;-82
2022/08/29 01:38:40;;;;;;;3.72;1.90;;;;;;;;;;5060084;23;20324;-78
2022/08/29 01:41:10;;;;;;;3.00;2.13;;;;;;;;;;5053440;28;20205;-79
2022/08/29 01:43:42;;;;;;;2.38;2.10;;;;;;;;;;5053766;28;20205;-79
2022/08/29 01:46:11;;;;;;;3.50;2.45;;;;;;;;;;5053257;28;20567;-78
2022/08/29 01:48:41;;;;;;;2.50;2.30;;;;;;;;;;5052718;28;20255;-78
2022/08/29 01:51:09;;;;;;;2.97;2.22;;;;;;;;;;5054128;28;20801;-79
2022/08/29 01:53:37;;;;;;;3.05;2.45;;;;;;;;;;5052926;28;20288;-80
2022/08/29 01:56:13;;;;;;;4.30;2.40;;;;;;;;;;5062704;28;20285;-79
2022/08/29 01:58:41;;;;;;;2.97;2.30;;;;;;;;;;5072324;28;20660;-79
2022/08/29 02:01:09;;;;;;;4.90;2.58;;;;;;;;;;5073375;28;20308;-79
2022/08/29 02:03:37;;;;;;;3.28;2.50;;;;;;;;;;5072511;28;20288;-80
2022/08/29 02:06:08;;;;;;;3.08;2.50;;;;;;;;;;5072371;28;20205;-79
2022/08/29 02:08:36;;;;;;;2.88;2.33;;;;;;;;;;5072702;28;20268;-79
2022/08/29 02:11:08;;;;;;;3.80;2.00;;;;;;;;;;5072722;28;20683;-78
2022/08/29 02:13:37;;;;;;;2.55;2.30;;;;;;;;;;5072878;28;20201;-79
2022/08/29 02:16:05;;;;;;;3.67;2.22;;;;;;;;;;5073184;28;20252;-78
2022/08/29 02:18:33;;;;;;;4.90;2.22;;;;;;;;;;5072565;28;20269;-78
2022/08/29 02:21:01;;;;;;;2.90;2.60;;;;;;;;;;5072011;28;20292;-78
2022/08/29 02:23:29;;;;;;;2.90;2.13;;;;;;;;;;5068243;28;20210;-78
2022/08/29 02:25:56;;;;;;;4.22;2.55;;;;;;;;;;5052607;28;20292;-80
2022/08/29 02:28:24;;;;;;;3.45;1.70;;;;;;;;;;5052050;28;20668;-79
2022/08/29 02:30:54;;;;;;;2.35;1.98;;;;;;;;;;5051721;28;20639;-79
2022/08/29 02:33:22;;;;;;;2.80;2.08;;;;;;;;;;5052668;28;20275;-79
2022/08/29 02:35:50;;;;;;;3.50;2.42;;;;;;;;;;5052305;28;20288;-79
2022/08/29 02:38:18;;;;;;;3.10;1.95;;;;;;;;;;5052024;28;20214;-80
2022/08/29 02:40:46;;;;;;;2.25;2.00;;;;;;;;;;5053726;28;20292;-78
2022/08/29 02:43:15;;;;;;;3.80;2.10;;;;;;;;;;5056683;28;20225;-78
2022/08/29 02:45:43;;;;;;;5.07;1.88;;;;;;;;;;5056327;28;20567;-79
2022/08/29 02:48:12;;;;;;;2.95;2.25;;;;;;;;;;5055741;28;20428;-78
2022/08/29 02:50:41;;;;;;;2.65;2.10;;;;;;;;;;5055789;28;20212;-79
2022/08/29 02:53:08;;;;;;;3.10;1.90;;;;;;;;;;5055520;28;20261;-80
2022/08/29 02:55:36;;;;;;;2.88;1.95;;;;;;;;;;5055280;28;20212;-79
2022/08/29 02:58:04;;;;;;;3.45;2.20;;;;;;;;;;5055317;28;20230;-78
2022/08/29 03:00:33;;;;;;;2.92;2.30;;;;;;;;;;5055311;28;20208;-78
2022/08/29 03:03:03;;;;;;;4.32;2.25;;;;;;;;;;5055838;28;20749;-79
2022/08/29 03:05:35;;;;;;;2.15;1.67;;;;;;;;;;5056236;28;20206;-80
2022/08/29 03:08:06;;;;;;;3.28;2.00;;;;;;;;;;5054369;28;20221;-78
2022/08/29 03:10:35;;;;;;;2.08;1.88;;;;;;;;;;5055513;28;20281;-79
2022/08/29 03:13:02;;;;;;;2.90;1.55;;;;;;;;;;5055823;28;20288;-80
2022/08/29 03:15:30;;;;;;;4.25;1.85;;;;;;;;;;5056234;28;20654;-78
2022/08/29 03:17:58;;;;;;;3.13;2.50;;;;;;;;;;5055499;28;20304;-79
2022/08/29 03:20:26;;;;;;;2.80;2.20;;;;;;;;;;5055046;28;20292;-78
2022/08/29 03:22:56;;;;;;;2.22;1.60;;;;;;;;;;5055483;28;20257;-78
2022/08/29 03:25:24;;;;;;;1.45;1.35;;;;;;;;;;5055075;28;20248;-79
2022/08/29 03:27:52;;;;;;;1.80;1.70;;;;;;;;;;5055359;28;20308;-78
2022/08/29 03:30:20;;;;;;;1.92;1.77;;;;;;;;;;5055247;28;20292;-78
2022/08/29 03:32:48;;;;;;;2.13;1.92;;;;;;;;;;5054801;28;20284;-79
2022/08/29 03:35:18;;;;;;;2.38;2.17;;;;;;;;;;5054766;28;20284;-79
2022/08/29 03:37:46;;;;;;;2.17;1.75;;;;;;;;;;5054319;28;20233;-78
2022/08/29 03:40:16;;;;;;;1.88;1.67;;;;;;;;;;5054653;28;20288;-79
2022/08/29 03:42:44;;;;;;;1.92;1.70;;;;;;;;;;5055409;28;20225;-79
2022/08/29 03:45:15;;;;;;;4.28;1.92;;;;;;;;;;5055073;28;20296;-80
2022/08/29 03:47:43;;;;;;;2.03;1.52;;;;;;;;;;5056954;28;20313;-78
2022/08/29 03:50:11;;;;;;;1.70;1.60;;;;;;;;;;5054798;28;20288;-78
2022/08/29 03:52:39;;;;;;;1.08;0.98;;;;;;;;;;5055101;28;20236;-78
2022/08/29 03:55:08;;;;;;;1.70;1.60;;;;;;;;;;5054945;28;20210;-78
2022/08/29 03:57:37;;;;;;;2.35;1.50;;;;;;;;;;5054859;28;20249;-78
2022/08/29 04:00:10;;;;;;;2.30;1.80;;;;;;;;;;5055081;28;20241;-79
2022/08/29 04:02:39;;;;;;;4.45;2.08;;;;;;;;;;5055294;28;20306;-78
2022/08/29 04:05:08;;;;;;;5.30;1.92;;;;;;;;;;5054638;28;20252;-78
2022/08/29 04:07:48;;;;;;;2.25;1.70;;;;;;;;;;5054151;28;20792;-81
2022/08/29 04:10:20;;;;;;;2.35;2.15;;;;;;;;;;5054168;28;20288;-80
2022/08/29 04:12:49;;;;;;;3.78;2.42;;;;;;;;;;5054578;28;20276;-78
2022/08/29 04:15:17;;;;;;;2.13;1.92;;;;;;;;;;5054527;28;20288;-80
2022/08/29 04:17:45;;;;;;;1.85;1.70;;;;;;;;;;5054194;28;20769;-79
2022/08/29 04:20:14;;;;;;;2.10;1.70;;;;;;;;;;5053709;28;20284;-79
2022/08/29 04:22:43;;;;;;;1.90;1.50;;;;;;;;;;5055084;28;20228;-79
2022/08/29 04:25:13;;;;;;;2.20;1.90;;;;;;;;;;5054364;28;20296;-78
2022/08/29 04:27:41;;;;;;;2.47;1.90;;;;;;;;;;5053775;28;20816;-79
2022/08/29 04:30:14;;;;;;;3.20;2.10;;;;;;;;;;5054140;28;20209;-79
2022/08/29 04:32:42;;;;;;;2.05;1.70;;;;;;;;;;5054551;28;20197;-78
2022/08/29 04:35:12;;;;;;;1.95;1.80;;;;;;;;;;5053700;28;20239;-78
2022/08/29 04:37:40;;;;;;;1.70;1.60;;;;;;;;;;5053208;28;20229;-79
2022/08/29 04:40:10;;;;;;;4.40;2.08;;;;;;;;;;5054695;28;20208;-80
2022/08/29 04:42:38;;;;;;;2.25;1.98;;;;;;;;;;5054508;28;20288;-79
2022/08/29 04:45:08;;;;;;;2.28;2.10;;;;;;;;;;5053727;28;20202;-77
2022/08/29 04:47:37;;;;;;;1.60;1.50;;;;;;;;;;5053392;28;20257;-79
2022/08/29 04:50:06;;;;;;;1.50;1.40;;;;;;;;;;5053501;28;20283;-79
2022/08/29 04:52:35;;;;;;;2.15;1.83;;;;;;;;;;5054291;28;20284;-78
2022/08/29 04:55:03;;;;;;;3.10;1.80;;;;;;;;;;5054069;28;20626;-79
2022/08/29 04:57:30;;;;;;;1.25;1.15;;;;;;;;;;5055592;28;20290;-81
2022/08/29 04:59:59;;;;;;;2.80;1.58;;;;;;;;;;5054812;28;20296;-80
2022/08/29 05:02:28;;;;;;;2.38;1.88;;;;;;;;;;5053264;28;20284;-78
2022/08/29 05:04:57;;;;;;;2.05;1.75;;;;;;;;;;5052873;28;20316;-80
2022/08/29 05:07:27;;;;;;;2.17;1.70;;;;;;;;;;5053581;28;20776;-78
2022/08/29 05:09:59;;;;;;;2.20;2.00;;;;;;;;;;5053497;28;20202;-78
2022/08/29 05:12:29;;;;;;;1.48;1.38;;;;;;;;;;5053468;28;20570;-79
2022/08/29 05:14:57;;;;;;;1.60;1.50;;;;;;;;;;5053723;28;20650;-78
2022/08/29 05:17:25;;;;;;;2.55;2.35;;;;;;;;;;5053529;28;20309;-78
2022/08/29 05:19:52;;;;;;;3.30;2.05;;;;;;;;;;5053300;28;20288;-79
2022/08/29 05:22:22;;;;;;;1.70;1.60;;;;;;;;;;5053482;28;20289;-80
2022/08/29 05:24:50;;;;;;;2.50;1.70;;;;;;;;;;5053060;28;20275;-79
2022/08/29 05:27:22;;;;;;;2.30;2.10;;;;;;;;;;5052709;28;20316;-79
2022/08/29 05:29:51;;;;;;;3.30;1.80;;;;;;;;;;5053268;28;20205;-79
2022/08/29 05:32:20;;;;;;;2.58;1.70;;;;;;;;;;5053202;28;20209;-80
2022/08/29 05:34:48;;;;;;;2.13;1.60;;;;;;;;;;5053344;28;20193;-80
2022/08/29 05:37:20;;;;;;;2.25;1.85;;;;;;;;;;5052820;28;20312;-80
2022/08/29 05:39:49;;;;;;;3.45;1.90;;;;;;;;;;5053523;28;20289;-78
2022/08/29 05:42:18;;;;;;;2.28;1.95;;;;;;;;;;5052874;28;20288;-80
2022/08/29 05:44:46;;;;;;;1.30;1.20;;;;;;;;;;5052421;28;20232;-79
2022/08/29 05:47:16;;;;;;;1.58;1.48;;;;;;;;;;5052205;28;20313;-79
2022/08/29 05:49:45;;;;;;;1.63;1.52;;;;;;;;;;5053315;28;20289;-80
2022/08/29 05:52:15;;;;;;;1.58;1.40;;;;;;;;;;5052691;28;20289;-80
2022/08/29 05:54:45;;;;;;;1.98;1.70;;;;;;;;;;5049876;28;20201;-80
2022/08/29 05:57:17;;;;;;;2.28;1.75;;;;;;;;;;5051096;28;20229;-80
2022/08/29 05:59:49;;;;;;;2.65;1.52;;;;;;;;;;5051833;28;20293;-80
2022/08/29 06:02:17;;;;;;;1.92;1.45;;;;;;;;;;5075326;22;20335;-80
2022/08/29 06:04:45;;;;;;;1.90;1.80;;;;;;;;;;5052520;28;20312;-81
2022/08/29 06:07:14;;;;;;;2.33;2.13;;;;;;;;;;5052651;28;20201;-79
2022/08/29 06:09:44;;;;;;;3.25;2.67;;;;;;;;;;5052572;28;20615;-79
2022/08/29 06:12:13;;;;;;;3.33;2.25;;;;;;;;;;5051635;28;20300;-80
2022/08/29 06:14:41;;;;;;;3.95;2.40;;;;;;;;;;5053578;28;20194;-79
2022/08/29 06:17:09;;;;;;;2.15;1.70;;;;;;;;;;5055362;28;20647;-78
2022/08/29 06:19:38;;;;;;;3.40;1.90;;;;;;;;;;5055088;28;20229;-78
2022/08/29 06:22:08;;;;;;;1.85;1.73;;;;;;;;;;5055029;28;20718;-79
2022/08/29 06:24:38;;;;;;;5.18;2.53;;;;;;;;;;5055328;28;20316;-79
2022/08/29 06:27:07;;;;;;;2.38;2.00;;;;;;;;;;5057760;28;20208;-79
2022/08/29 06:29:34;;;;;;;2.80;2.60;;;;;;;;;;5047250;28;20204;-81
2022/08/29 06:32:02;;;;;;;2.38;2.05;;;;;;;;;;5042736;28;20204;-80
2022/08/29 06:34:30;;;;;;;2.88;2.38;;;;;;;;;;5042764;28;20294;-79
2022/08/29 06:36:58;;;;;;;2.28;1.67;;;;;;;;;;5039364;28;20238;-79
2022/08/29 06:39:25;;;;;;;2.53;2.17;;;;;;;;;;5037915;28;20202;-79
2022/08/29 06:41:53;;;;;;;1.77;1.50;;;;;;;;;;5037697;28;20293;-80
2022/08/29 06:44:22;;;;;;;2.53;2.17;;;;;;;;;;5037379;28;20316;-80
2022/08/29 06:46:50;;;;;;;2.58;2.03;;;;;;;;;;5036917;28;20765;-79
2022/08/29 06:49:21;;;;;;;2.95;2.08;;;;;;;;;;5037446;28;20294;-79
2022/08/29 06:51:51;;;;;;;2.53;2.10;;;;;;;;;;5037199;28;20205;-80
2022/08/29 06:54:20;;;;;;;4.07;3.30;;;;;;;;;;5047159;28;20309;-81
2022/08/29 06:56:48;;;;;;;4.82;3.20;;;;;;;;;;5056594;28;20226;-80
2022/08/29 06:59:16;;;;;;;3.00;2.10;;;;;;;;;;5055330;28;20292;-80
2022/08/29 07:01:46;;;;;;;3.42;2.33;;;;;;;;;;5056417;28;20587;-80
2022/08/29 07:04:14;;;;;;;3.83;3.03;;;;;;;;;;5053785;28;20637;-80
2022/08/29 07:06:41;;;;;;;2.40;1.73;;;;;;;;;;5036040;28;20296;-79
2022/08/29 07:09:09;;;;;;;3.67;3.03;;;;;;;;;;5036311;28;20202;-79
2022/08/29 07:11:40;;;;;;;4.93;2.20;;;;;;;;;;5036153;28;20195;-80
2022/08/29 07:14:08;;;;;;;2.35;2.03;;;;;;;;;;5035928;28;20229;-80
2022/08/29 07:16:37;;;;;;;1.92;1.80;;;;;;;;;;5036411;28;20204;-80
2022/08/29 07:19:08;;;;;;;2.97;2.65;;;;;;;;;;5036821;28;20585;-81
2022/08/29 07:21:36;;;;;;;2.95;2.00;;;;;;;;;;5036150;28;20206;-81
2022/08/29 07:24:05;;;;;;;2.83;2.42;;;;;;;;;;5045010;28;20225;-80
2022/08/29 07:26:37;;;;;;;3.40;2.22;;;;;;;;;;5055762;28;20285;-81
2022/08/29 07:29:09;;;;;;;4.25;2.30;;;;;;;;;;5056459;28;20704;-81
2022/08/29 07:31:38;;;;;;;3.00;2.30;;;;;;;;;;5056811;28;20202;-81
2022/08/29 07:34:07;;;;;;;5.88;2.72;;;;;;;;;;5056590;28;20232;-81
2022/08/29 07:36:35;;;;;;;4.38;2.50;;;;;;;;;;5056002;28;20292;-82
2022/08/29 07:39:05;;;;;;;3.88;2.67;;;;;;;;;;5055212;28;20292;-81
2022/08/29 07:41:33;;;;;;;4.90;2.97;;;;;;;;;;5057237;28;20633;-81
2022/08/29 07:44:00;;;;;;;4.38;2.50;;;;;;;;;;5056114;28;20256;-81
2022/08/29 07:46:28;;;;;;;4.70;2.60;;;;;;;;;;5055669;28;20316;-83
2022/08/29 07:48:55;;;;;;;2.30;2.13;;;;;;;;;;5056448;28;20285;-81
2022/08/29 07:51:25;;;;;;;5.65;4.13;;;;;;;;;;5055336;28;20292;-82
2022/08/29 07:53:54;;;;;;;3.90;2.50;;;;;;;;;;5055457;28;20724;-82
2022/08/29 07:56:24;;;;;;;3.95;2.35;;;;;;;;;;5038941;28;20281;-82
2022/08/29 07:58:52;;;;;;;3.65;2.65;;;;;;;;;;5056330;28;20205;-81
2022/08/29 08:01:20;;;;;;;3.03;2.47;;;;;;;;;;5056264;28;20236;-82
2022/08/29 08:03:48;;;;;;;5.25;2.45;;;;;;;;;;5056190;28;20295;-81
2022/08/29 08:06:16;;;;;;;2.33;2.13;;;;;;;;;;5055636;28;20259;-81
2022/08/29 08:08:45;;;;;;;6.20;2.00;;;;;;;;;;5055673;28;20223;-81
2022/08/29 08:11:13;;;;;;;2.72;2.20;;;;;;;;;;5056342;28;20268;-82
2022/08/29 08:13:41;;;;;;;1.92;1.67;;;;;;;;;;5056529;28;20372;-81
2022/08/29 08:16:11;;;;;;;3.15;1.85;;;;;;;;;;5056116;28;20202;-81
2022/08/29 08:18:40;;;;;;;3.22;1.77;;;;;;;;;;5055981;28;20292;-81
2022/08/29 08:21:08;;;;;;;3.65;2.10;;;;;;;;;;5055903;28;20296;-80
2022/08/29 08:23:36;;;;;;;2.15;1.95;;;;;;;;;;5055474;28;20660;-81
2022/08/29 08:26:06;;;;;;;1.50;1.40;;;;;;;;;;5055378;28;20232;-81
2022/08/29 08:28:33;;;;;;;5.35;3.70;;;;;;;;;;5055560;28;20209;-82
2022/08/29 08:31:04;;;;;;;3.45;2.15;;;;;;;;;;5054899;28;20297;-82
2022/08/29 08:33:31;;;;;;;1.88;1.60;;;;;;;;;;5055295;28;20304;-81
2022/08/29 08:35:59;;;;;;;1.85;1.38;;;;;;;;;;5054694;28;20280;-81
2022/08/29 08:38:27;;;;;;;2.40;1.60;;;;;;;;;;5054129;28;20205;-81
2022/08/29 08:41:02;;;;;;;3.60;2.63;;;;;;;;;;5055274;28;20313;-81
2022/08/29 08:43:46;;;;;;;1.65;1.50;;;;;;;;;;5055299;28;20224;-81
2022/08/29 08:46:13;;;;;;;2.75;1.80;;;;;;;;;;5055372;28;20230;-82
2022/08/29 08:48:41;;;;;;;3.20;1.88;;;;;;;;;;5054802;28;20208;-82
2022/08/29 08:51:14;;;;;;;1.60;1.48;;;;;;;;;;5055277;28;20273;-81
2022/08/29 08:53:44;;;;;;;1.73;1.63;;;;;;;;;;5054880;28;20229;-81
2022/08/29 08:56:15;;;;;;;4.68;1.92;;;;;;;;;;5055435;28;20229;-83
2022/08/29 08:58:50;;;;;;;3.75;2.03;;;;;;;;;;5055729;28;20284;-82
2022/08/29 09:01:23;;;;;;;4.18;1.77;;;;;;;;;;5053953;28;20657;-82
2022/08/29 09:04:21;;;;;;;2.13;1.92;;;;;;;;;;5055171;28;20231;-82
2022/08/29 09:07:01;;;;;;;2.22;1.70;;;;;;;;;;5054891;28;20693;-81
2022/08/29 09:09:42;;;;;;;2.17;1.80;;;;;;;;;;5054812;28;20233;-82
2022/08/29 09:12:35;;;;;;;2.63;1.88;;;;;;;;;;5055381;28;20249;-82
2022/08/29 09:15:09;;;;;;;2.50;1.83;;;;;;;;;;5056156;28;20202;-82
2022/08/29 09:17:42;;;;;;;3.45;2.05;;;;;;;;;;5055175;28;20765;-81
2022/08/29 09:20:15;;;;;;;2.58;1.90;;;;;;;;;;5054984;28;20197;-81
2022/08/29 09:22:49;;;;;;;2.00;1.90;;;;;;;;;;5054646;28;20255;-82
2022/08/29 09:25:17;;;;;;;1.52;1.40;;;;;;;;;;5054365;28;20205;-81
2022/08/29 09:27:48;;;;;;;1.85;1.65;;;;;;;;;;5053786;28;20267;-82
2022/08/29 09:30:24;;;;;;;1.88;1.77;;;;;;;;;;5054574;28;20240;-82
2022/08/29 09:32:59;;;;;;;4.95;1.63;;;;;;;;;;5053831;28;20646;-80
2022/08/29 09:35:35;;;;;;;1.52;1.42;;;;;;;;;;5054450;28;20192;-81
2022/08/29 09:38:05;;;;;;;1.98;1.77;;;;;;;;;;5049724;28;20206;-81
2022/08/29 09:40:54;;;;;;;2.13;1.88;;;;;;;;;;5050596;28;20308;-82
2022/08/29 09:43:27;;;;;;;3.83;1.88;;;;;;;;;;5051778;28;20581;-82
2022/08/29 09:46:17;;;;;;;2.60;2.25;;;;;;;;;;5050918;28;20312;-81
2022/08/29 09:48:51;;;;;;;2.75;1.80;;;;;;;;;;5051859;28;20311;-82
2022/08/29 09:51:27;;;;;;;4.25;1.83;;;;;;;;;;5055712;28;20227;-81
2022/08/29 09:54:10;;;;;;;1.85;1.67;;;;;;;;;;5055797;28;20229;-81
2022/08/29 09:56:40;;;;;;;2.40;1.50;;;;;;;;;;5044659;28;20580;-81
2022/08/29 09:59:16;;;;;;;2.13;2.00;;;;;;;;;;5035506;28;20202;-81
2022/08/29 10:01:45;;;;;;;2.20;2.00;;;;;;;;;;5035860;28;20292;-81
2022/08/29 10:04:13;;;;;;;4.03;3.08;;;;;;;;;;5035206;28;20321;-81
2022/08/29 10:06:41;;;;;;;1.40;1.30;;;;;;;;;;5035272;28;20691;-80
2022/08/29 10:09:11;;;;;;;1.35;1.25;;;;;;;;;;5035402;28;20268;-80
2022/08/29 10:11:45;;;;;;;2.22;1.42;;;;;;;;;;5035427;28;20641;-81
2022/08/29 10:14:20;;;;;;;1.65;1.48;;;;;;;;;;5035691;28;20254;-81
2022/08/29 10:18:19;;;;;;;2.38;1.42;;;;;;;;;;5035076;28;20681;-81
2022/08/29 10:19:44;;;;;;;2.38;1.70;;;;;;;;;;5034282;28;20692;-80
2022/08/29 10:22:22;;;;;;;4.18;2.60;;;;;;;;;;5034461;28;20333;-81
2022/08/29 10:24:57;;;;;;;2.00;1.67;;;;;;;;;;5049465;28;20296;-82
2022/08/29 10:27:32;;;;;;;1.80;1.35;;;;;;;;;;5054430;28;20271;-81
2022/08/29 10:30:11;;;;;;;2.55;1.58;;;;;;;;;;5054495;28;20288;-81
2022/08/29 10:33:09;;;;;;;2.75;1.38;;;;;;;;;;5054451;28;20807;-82
2022/08/29 10:35:42;;;;;;;2.75;1.40;;;;;;;;;;5054819;28;20237;-81
2022/08/29 10:38:16;;;;;;;2.33;1.52;;;;;;;;;;5054526;28;20692;-81
2022/08/29 10:40:47;;;;;;;2.22;1.30;;;;;;;;;;5054421;28;20197;-80
2022/08/29 10:43:36;;;;;;;2.97;1.80;;;;;;;;;;5054199;28;20222;-80
2022/08/29 10:46:31;;;;;;;2.03;1.42;;;;;;;;;;5054093;28;20688;-80
2022/08/29 10:49:06;;;;;;;1.70;1.60;;;;;;;;;;5054008;28;20207;-80
2022/08/29 10:51:45;;;;;;;1.35;1.25;;;;;;;;;;5054918;28;20205;-81
2022/08/29 10:54:25;;;;;;;1.50;1.40;;;;;;;;;;5054956;28;20887;-81
2022/08/29 10:56:53;;;;;;;2.38;1.60;;;;;;;;;;5041275;28;20281;-81
2022/08/29 10:59:29;;;;;;;2.90;2.20;;;;;;;;;;5034135;28;20284;-81
2022/08/29 11:02:03;;;;;;;1.52;1.42;;;;;;;;;;5033338;28;20214;-81
2022/08/29 11:04:38;;;;;;;1.80;1.70;;;;;;;;;;5034246;28;20266;-81
2022/08/29 11:07:10;;;;;;;1.98;1.88;;;;;;;;;;5033796;28;20225;-81
2022/08/29 11:09:42;;;;;;;3.10;1.50;;;;;;;;;;5033827;28;20729;-81
2022/08/29 11:12:21;;;;;;;1.25;1.17;;;;;;;;;;5033725;28;20229;-81
2022/08/29 11:14:58;;;;;;;1.48;1.40;;;;;;;;;;5034798;28;20198;-81
2022/08/29 11:17:30;;;;;;;1.33;1.23;;;;;;;;;;5034462;28;20471;-82
2022/08/29 11:20:08;;;;;;;1.60;1.50;;;;;;;;;;5034201;28;20289;-82
2022/08/29 11:22:40;;;;;;;2.17;1.38;;;;;;;;;;5034446;28;20232;-81
2022/08/29 11:25:12;;;;;;;1.83;1.73;;;;;;;;;;5052064;28;20587;-81
2022/08/29 11:27:51;;;;;;;2.22;1.50;;;;;;;;;;5054034;28;20320;-82
2022/08/29 11:30:22;;;;;;;2.08;1.40;;;;;;;;;;5054204;28;20197;-82
2022/08/29 11:33:03;;;;;;;1.50;1.40;;;;;;;;;;5053814;28;20225;-81
2022/08/29 11:35:40;;;;;;;1.88;1.67;;;;;;;;;;5054536;28;20201;-81
2022/08/29 11:39:02;;;;;;;1.92;1.70;;;;;;;;;;5053889;28;20618;-81
2022/08/29 11:41:32;;;;;;;2.03;1.80;;;;;;;;;;5053933;28;20729;-82
2022/08/29 11:44:22;;;;;;;3.17;1.38;;;;;;;;;;5053990;28;20252;-82
2022/08/29 11:46:51;;;;;;;1.60;1.50;;;;;;;;;;5053411;28;20312;-81
2022/08/29 11:49:32;;;;;;;3.67;1.83;;;;;;;;;;5054000;28;20744;-81
2022/08/29 11:52:16;;;;;;;1.77;1.52;;;;;;;;;;5053434;28;20273;-82
2022/08/29 11:55:27;;;;;;;2.22;1.70;;;;;;;;;;5053582;28;20285;-83
2022/08/29 11:58:05;;;;;;;2.30;1.75;;;;;;;;;;5027002;28;20788;-82
2022/08/29 12:00:51;;;;;;;2.25;1.52;;;;;;;;;;5033738;28;20285;-82
2022/08/29 12:03:54;;;;;;;1.88;1.77;;;;;;;;;;5051731;23;20235;-80
2022/08/29 12:06:42;;;;;;;1.63;1.52;;;;;;;;;;5011512;28;20261;-81
2022/08/29 12:09:49;;;;;;;1.83;1.70;;;;;;;;;;5019217;28;20285;-80
2022/08/29 12:12:45;;;;;;;1.73;1.60;;;;;;;;;;5017815;28;20195;-81
2022/08/29 12:15:53;;;;;;;2.67;1.80;;;;;;;;;;5017046;28;20246;-83
2022/08/29 12:18:51;;;;;;;2.20;2.00;;;;;;;;;;4997218;28;20207;-82
2022/08/29 12:21:47;;;;;;;2.67;1.85;;;;;;;;;;4997606;28;20262;-81
2022/08/29 12:24:41;;;;;;;1.95;1.73;;;;;;;;;;5016613;28;20745;-82
2022/08/29 12:27:58;;;;;;;2.97;1.92;;;;;;;;;;5035739;28;20278;-82
2022/08/29 12:30:27;;;;;;;2.40;2.20;;;;;;;;;;5027101;28;20202;-82
2022/08/29 12:33:06;;;;;;;3.25;2.17;;;;;;;;;;5037041;28;20735;-82
2022/08/29 12:36:17;;;;;;;1.90;1.80;;;;;;;;;;5036207;28;20222;-82
2022/08/29 12:38:58;;;;;;;1.80;1.70;;;;;;;;;;5036886;28;20285;-82
2022/08/29 12:41:41;;;;;;;2.45;1.98;;;;;;;;;;5021013;28;20715;-84
2022/08/29 12:44:15;;;;;;;1.88;1.70;;;;;;;;;;5015057;28;20652;-84
2022/08/29 12:46:45;;;;;;;4.05;1.85;;;;;;;;;;5013985;28;20306;-83
2022/08/29 12:49:21;;;;;;;2.05;1.80;;;;;;;;;;5015541;28;20289;-82
2022/08/29 12:51:54;;;;;;;1.63;1.52;;;;;;;;;;5013507;28;20209;-83
2022/08/29 12:54:32;;;;;;;2.00;1.75;;;;;;;;;;5014808;28;20640;-83
2022/08/29 12:57:02;;;;;;;2.22;1.45;;;;;;;;;;5014629;28;20226;-83
2022/08/29 12:59:30;;;;;;;2.92;2.00;;;;;;;;;;5013845;28;20292;-82
2022/08/29 13:01:59;;;;;;;2.47;1.77;;;;;;;;;;5015622;28;20198;-83
2022/08/29 13:04:31;;;;;;;1.83;1.73;;;;;;;;;;5014272;28;20715;-83
2022/08/29 13:07:02;;;;;;;2.20;1.48;;;;;;;;;;4994877;28;20206;-82
2022/08/29 13:09:33;;;;;;;2.92;2.33;;;;;;;;;;4995450;28;20659;-83
2022/08/29 13:12:16;;;;;;;1.70;1.60;;;;;;;;;;5013335;28;20654;-83
2022/08/29 13:14:51;;;;;;;2.08;1.17;;;;;;;;;;5014466;28;20277;-83
2022/08/29 13:17:22;;;;;;;1.88;1.77;;;;;;;;;;5014889;28;20285;-82
2022/08/29 13:20:41;;;;;;;2.40;1.90;;;;;;;;;;5012432;28;20199;-82
2022/08/29 13:23:15;;;;;;;2.10;1.90;;;;;;;;;;5015172;28;20187;-82
2022/08/29 13:25:47;;;;;;;1.98;1.77;;;;;;;;;;5014154;28;20218;-82
2022/08/29 13:28:21;;;;;;;1.92;1.67;;;;;;;;;;5015197;28;20219;-83
2022/08/29 13:31:31;;;;;;;7.90;2.25;;;;;;;;;;5015213;28;20209;-83
2022/08/29 13:34:19;;;;;;;1.80;1.70;;;;;;;;;;5010865;28;20203;-84
2022/08/29 13:37:01;;;;;;;1.38;1.27;;;;;;;;;;5014410;28;20298;-84
2022/08/29 13:39:36;;;;;;;1.98;1.42;;;;;;;;;;5015137;28;20199;-82
2022/08/29 13:42:23;;;;;;;2.25;1.33;;;;;;;;;;5014208;28;20641;-83
2022/08/29 13:45:18;;;;;;;2.05;1.75;;;;;;;;;;5014860;28;20314;-82
2022/08/29 13:48:12;;;;;;;1.83;1.52;;;;;;;;;;5014978;28;20217;-82
2022/08/29 13:50:39;;;;;;;2.63;1.52;;;;;;;;;;5014148;28;20199;-84
2022/08/29 13:53:07;;;;;;;1.50;1.40;;;;;;;;;;5014473;28;20297;-82
2022/08/29 13:55:34;;;;;;;1.73;1.58;;;;;;;;;;5015102;28;20314;-83
2022/08/29 13:58:03;;;;;;;1.20;1.20;;;;;;;;;;5014186;28;20290;-83
2022/08/29 14:00:32;;;;;;;1.85;1.52;;;;;;;;;;5014095;28;20245;-83
2022/08/29 14:03:01;;;;;;;1.40;1.23;;;;;;;;;;5014483;28;20222;-83
2022/08/29 14:05:29;;;;;;;1.92;1.25;;;;;;;;;;5022021;28;20226;-83
2022/08/29 14:07:56;;;;;;;5.18;1.65;;;;;;;;;;5033955;28;20297;-82
2022/08/29 14:10:24;;;;;;;1.52;1.42;;;;;;;;;;5029066;28;20213;-81
2022/08/29 14:12:52;;;;;;;3.92;2.50;;;;;;;;;;5015616;28;20329;-84
2022/08/29 14:15:20;;;;;;;1.70;1.60;;;;;;;;;;5014277;28;20251;-82
2022/08/29 14:17:49;;;;;;;2.33;1.45;;;;;;;;;;5013638;28;20630;-82
2022/08/29 14:20:19;;;;;;;1.50;1.40;;;;;;;;;;5013897;28;20207;-82
2022/08/29 14:22:47;;;;;;;1.50;1.40;;;;;;;;;;5014876;28;20309;-82
2022/08/29 14:25:17;;;;;;;2.10;1.90;;;;;;;;;;5014040;28;20266;-83
2022/08/29 14:27:47;;;;;;;3.00;1.90;;;;;;;;;;5013779;28;20289;-84
2022/08/29 14:30:17;;;;;;;1.77;1.65;;;;;;;;;;5013938;28;20219;-86
2022/08/29 14:32:45;;;;;;;1.83;1.70;;;;;;;;;;5013883;28;20298;-84
2022/08/29 14:35:14;;;;;;;2.05;1.63;;;;;;;;;;5013054;28;20233;-83
2022/08/29 14:37:42;;;;;;;1.60;1.50;;;;;;;;;;5016553;28;20294;-82
2022/08/29 14:40:10;;;;;;;2.05;1.75;;;;;;;;;;5018470;28;20199;-85
2022/08/29 14:42:39;;;;;;;1.48;1.38;;;;;;;;;;5017121;28;20271;-82
2022/08/29 14:45:09;;;;;;;2.22;2.00;;;;;;;;;;5017540;28;20223;-83
2022/08/29 14:47:37;;;;;;;2.03;1.92;;;;;;;;;;5018229;28;20686;-82
2022/08/29 14:50:06;;;;;;;2.08;1.60;;;;;;;;;;5018066;28;20313;-83
2022/08/29 14:52:35;;;;;;;1.98;1.58;;;;;;;;;;5017595;28;20290;-82
2022/08/29 14:55:03;;;;;;;1.58;1.48;;;;;;;;;;5017370;28;20270;-84
2022/08/29 14:57:31;;;;;;;1.45;1.30;;;;;;;;;;5016804;28;20234;-83
2022/08/29 14:59:58;;;;;;;1.60;1.40;;;;;;;;;;5017444;28;20290;-82
2022/08/29 15:02:26;;;;;;;1.67;1.40;;;;;;;;;;5017534;28;20683;-83
2022/08/29 15:04:55;;;;;;;2.03;1.50;;;;;;;;;;5019934;28;20328;-82
2022/08/29 15:07:23;;;;;;;1.83;1.70;;;;;;;;;;5037494;28;20651;-82
2022/08/29 15:09:52;;;;;;;1.50;1.38;;;;;;;;;;5037001;28;20313;-81
2022/08/29 15:12:20;;;;;;;1.70;1.40;;;;;;;;;;5016326;28;20238;-82
2022/08/29 15:14:48;;;;;;;1.52;1.42;;;;;;;;;;5016997;28;20318;-82
2022/08/29 15:17:16;;;;;;;1.65;1.55;;;;;;;;;;5014282;28;20713;-82